Time;durP1;ratioP1;P1;durP2;ratioP2;P2;SDS_P1;SDS_P2;PMS_P1;PMS_P2;Temp;Humidity;BMP_temperature;BMP_pressure;BME280_temperature;BME280_humidity;BME280_pressure;Samples;Min_cycle;Max_cycle;Signal;HPM_P1;HPM_P2
2023/03/02 00:00:54;;;;;;;;;;;;;;;-144.99;100.00;52423.63;5057625;28;20306;-73
2023/03/02 00:03:21;;;;;;;;;;;;;;;-144.99;100.00;52488.84;5070265;28;19924;-73
2023/03/02 00:05:49;;;;;;;;;;;;;;;-144.99;100.00;52452.16;5073620;28;19925;-75
2023/03/02 00:08:16;;;;;;;;;;;;;;;-144.99;100.00;52464.41;5071064;28;19928;-75
2023/03/02 00:10:43;;;;;;;;;;;;;;;-144.99;100.00;52452.16;5059273;28;20322;-74
2023/03/02 00:13:10;;;;;;;;;;;;;;;-144.99;100.00;52480.72;5061237;28;20436;-72
2023/03/02 00:15:36;;;;;;;;;;;;;;;-144.99;100.00;52403.25;5071641;28;20360;-73
2023/03/02 00:18:03;;;;;;;;;;;;;;;-144.99;100.00;52415.47;5057488;28;19978;-75
2023/03/02 00:20:30;;;;;;;;;;;;;;;-144.99;100.00;52456.25;5083242;28;19928;-75
2023/03/02 00:22:58;;;;;;;;;;;;;;;-144.99;100.00;52425.66;5072071;28;19929;-73
2023/03/02 00:25:25;;;;;;;;;;;;;;;-144.99;100.00;52460.31;5053166;28;19931;-71
2023/03/02 00:27:51;;;;;;;;;;;;;;;-144.99;100.00;52411.41;5068698;28;19978;-72
2023/03/02 00:30:18;;;;;;;;;;;;;;;-144.99;100.00;52427.72;5063005;28;19924;-72
2023/03/02 00:32:45;;;;;;;;;;;;;;;-144.99;100.00;52419.56;5071238;28;19929;-72
2023/03/02 00:35:11;;;;;;;;;;;;;;;-144.99;100.00;52444.03;5053871;28;20439;-70
2023/03/02 00:37:38;;;;;;;;;;;;;;;-144.99;100.00;52480.72;5065832;28;20344;-69
2023/03/02 00:40:08;;;;;;;;;;;;;;;-144.99;100.00;52472.56;5055730;28;19955;-69
2023/03/02 00:42:35;;;;;;;;;;;;;;;-144.99;100.00;52435.88;5064276;28;19993;-69
2023/03/02 00:45:01;;;;;;;;;;;;;;;-144.99;100.00;52448.09;5058949;28;19928;-69
2023/03/02 00:47:28;;;;;;;;;;;;;;;-144.99;100.00;52431.78;5055913;28;19978;-69
2023/03/02 00:49:55;;;;;;;;;;;;;;;-144.99;100.00;52446.06;5058716;28;20007;-69
2023/03/02 00:52:21;;;;;;;;;;;;;;;-144.99;100.00;52423.63;5056584;28;20270;-67
2023/03/02 00:54:48;;;;;;;;;;;;;;;-144.99;100.00;52439.94;5058936;28;20446;-68
2023/03/02 00:57:16;;;;;;;;;;;;;;;-144.99;100.00;52439.94;5058617;28;20331;-67
2023/03/02 00:59:42;;;;;;;;;;;;;;;-144.99;100.00;52456.25;5053678;28;19982;-67
2023/03/02 01:02:09;;;;;;;;;;;;;;;-144.99;100.00;52470.50;5073032;28;20377;-67
2023/03/02 01:04:37;;;;;;;;;;;;;;;-144.99;100.00;52452.16;5067326;28;19928;-67
2023/03/02 01:07:05;;;;;;;;;;;;;;;-144.99;100.00;52439.94;5050459;28;19932;-70
2023/03/02 01:09:32;;;;;;;;;;;;;;;-144.99;100.00;52433.81;5057234;28;20190;-66
2023/03/02 01:11:58;;;;;;;;;;;;;;;-144.99;100.00;52439.94;5069455;28;19924;-66
2023/03/02 01:14:26;;;;;;;;;;;;;;;-144.99;100.00;52419.56;5060542;28;19925;-66
2023/03/02 01:16:53;;;;;;;;;;;;;;;-144.99;100.00;52439.94;5057140;28;19968;-66
2023/03/02 01:19:19;;;;;;;;;;;;;;;-144.99;100.00;52448.09;5061542;28;20353;-64
2023/03/02 01:21:46;;;;;;;;;;;;;;;-144.99;100.00;52376.75;5059815;28;19933;-65
2023/03/02 01:24:13;;;;;;;;;;;;;;;-144.99;100.00;52439.94;5063404;28;20949;-71
2023/03/02 01:26:39;;;;;;;;;;;;;;;-144.99;100.00;52427.72;5069398;28;19970;-72
2023/03/02 01:29:06;;;;;;;;;;;;;;;-144.99;100.00;52486.81;5060011;28;20062;-72
2023/03/02 01:31:34;;;;;;;;;;;;;;;-144.99;100.00;52437.91;5060320;28;19924;-72
2023/03/02 01:34:00;;;;;;;;;;;;;;;-144.99;100.00;52415.47;5063179;28;20401;-71
2023/03/02 01:36:27;;;;;;;;;;;;;;;-144.99;100.00;52444.03;5055991;28;20018;-70
2023/03/02 01:38:54;;;;;;;;;;;;;;;-144.99;100.00;52395.09;5054036;28;19929;-73
2023/03/02 01:41:20;;;;;;;;;;;;;;;-144.99;100.00;52423.63;5067476;28;19924;-74
2023/03/02 01:43:47;;;;;;;;;;;;;;;-144.99;100.00;52444.03;5079283;28;19938;-74
2023/03/02 01:46:14;;;;;;;;;;;;;;;-144.99;100.00;52435.88;5073190;28;20399;-73
2023/03/02 01:48:45;;;;;;;;;;;;;;;-144.99;100.00;52415.47;5064797;28;19978;-75
2023/03/02 01:51:14;;;;;;;;;;;;;;;-144.99;100.00;52474.59;5066805;28;19933;-73
2023/03/02 01:53:45;;;;;;;;;;;;;;;-144.99;100.00;52427.72;5066376;28;19937;-74
2023/03/02 01:56:14;;;;;;;;;;;;;;;-144.99;100.00;52393.06;5057416;28;19956;-74
2023/03/02 01:58:41;;;;;;;;;;;;;;;-144.99;100.00;52429.75;5067722;28;20420;-74
2023/03/02 02:01:14;;;;;;;;;;;;;;;-144.99;100.00;52460.31;5064575;28;19924;-74
2023/03/02 02:03:41;;;;;;;;;;;;;;;-144.99;100.00;52431.78;5071652;28;19999;-73
2023/03/02 02:06:16;;;;;;;;;;;;;;;-144.99;100.00;52423.63;5061338;28;20018;-74
2023/03/02 02:08:42;;;;;;;;;;;;;;;-144.99;100.00;52444.03;5072595;28;19939;-74
2023/03/02 02:11:09;;;;;;;;;;;;;;;-144.99;100.00;52425.66;5066990;28;19928;-74
2023/03/02 02:13:36;;;;;;;;;;;;;;;-144.99;100.00;52411.41;5064087;28;20004;-75
2023/03/02 02:16:02;;;;;;;;;;;;;;;-144.99;100.00;52468.47;5065672;28;19932;-74
2023/03/02 02:18:29;;;;;;;;;;;;;;;-144.99;100.00;52431.78;5061398;28;19974;-71
2023/03/02 02:20:56;;;;;;;;;;;;;;;-144.99;100.00;52444.03;5065130;28;19925;-70
2023/03/02 02:23:29;;;;;;;;;;;;;;;-144.99;100.00;52419.56;5060693;28;19925;-71
2023/03/02 02:26:01;;;;;;;;;;;;;;;-144.99;100.00;52454.22;5079242;28;19925;-71
2023/03/02 02:28:30;;;;;;;;;;;;;;;-144.99;100.00;52452.16;5075011;28;20370;-70
2023/03/02 02:31:04;;;;;;;;;;;;;;;-144.99;100.00;52446.06;5062291;28;19964;-71
2023/03/02 02:33:32;;;;;;;;;;;;;;;-144.99;100.00;52439.94;5062807;28;20413;-73
2023/03/02 02:36:02;;;;;;;;;;;;;;;-144.99;100.00;52399.19;5073810;28;19978;-72
2023/03/02 02:38:29;;;;;;;;;;;;;;;-144.99;100.00;52431.78;5066849;28;19929;-73
2023/03/02 02:40:57;;;;;;;;;;;;;;;-144.99;100.00;52415.47;5067235;28;19932;-72
2023/03/02 02:43:26;;;;;;;;;;;;;;;-144.99;100.00;52448.09;5064868;28;19978;-70
2023/03/02 02:45:54;;;;;;;;;;;;;;;-144.99;100.00;52415.47;5075972;28;19924;-70
2023/03/02 02:48:23;;;;;;;;;;;;;;;-144.99;100.00;52423.63;5075347;28;19947;-67
2023/03/02 02:50:52;;;;;;;;;;;;;;;-144.99;100.00;52417.53;5076286;28;20424;-68
2023/03/02 02:53:21;;;;;;;;;;;;;;;-144.99;100.00;52452.16;5066046;28;20016;-66
2023/03/02 02:55:50;;;;;;;;;;;;;;;-144.99;100.00;52439.94;5065156;28;20451;-66
2023/03/02 02:58:23;;;;;;;;;;;;;;;-144.99;100.00;52431.78;5063709;28;19994;-65
2023/03/02 03:00:52;;;;;;;;;;;;;;;-144.99;100.00;52417.53;5066722;28;19925;-66
2023/03/02 03:03:29;;;;;;;;;;;;;;;-144.99;100.00;52439.94;5069271;28;19972;-72
2023/03/02 03:05:56;;;;;;;;;;;;;;;-144.99;100.00;52423.63;5066091;28;19931;-69
2023/03/02 03:08:41;;;;;;;;;;;;;;;-144.99;100.00;52448.09;5076511;28;19959;-69
2023/03/02 03:11:08;;;;;;;;;;;;;;;-144.99;100.00;52415.47;5075560;28;19928;-69
2023/03/02 03:13:35;;;;;;;;;;;;;;;-144.99;100.00;52407.31;5080220;28;19932;-70
2023/03/02 03:16:03;;;;;;;;;;;;;;;-144.99;100.00;52444.03;5073472;28;20355;-69
2023/03/02 03:18:30;;;;;;;;;;;;;;;-144.99;100.00;52444.03;5066285;28;19978;-66
2023/03/02 03:20:57;;;;;;;;;;;;;;;-144.99;100.00;52423.63;5076835;28;20347;-67
2023/03/02 03:23:24;;;;;;;;;;;;;;;-144.99;100.00;52439.94;5065763;28;19943;-66
2023/03/02 03:25:50;;;;;;;;;;;;;;;-144.99;100.00;52439.94;5069423;28;19934;-66
2023/03/02 03:28:18;;;;;;;;;;;;;;;-144.99;100.00;52456.25;5075172;28;20264;-67
2023/03/02 03:30:44;;;;;;;;;;;;;;;-144.99;100.00;52464.41;5068298;28;19932;-67
2023/03/02 03:33:12;;;;;;;;;;;;;;;-144.99;100.00;52399.19;5071260;28;19924;-67
2023/03/02 03:35:39;;;;;;;;;;;;;;;-144.99;100.00;52444.03;5067498;28;19924;-68
2023/03/02 03:38:06;;;;;;;;;;;;;;;-144.99;100.00;52435.88;5071588;28;19928;-68
2023/03/02 03:40:33;;;;;;;;;;;;;;;-144.99;100.00;52444.03;5066044;28;19925;-67
2023/03/02 03:42:59;;;;;;;;;;;;;;;-144.99;100.00;52480.72;5077410;28;19935;-67
2023/03/02 03:45:26;;;;;;;;;;;;;;;-144.99;100.00;52478.66;5068664;28;19925;-67
2023/03/02 03:47:52;;;;;;;;;;;;;;;-144.99;100.00;52476.63;5068453;28;19926;-69
2023/03/02 03:50:21;;;;;;;;;;;;;;;-144.99;100.00;52448.09;5074809;28;19924;-70
2023/03/02 03:52:47;;;;;;;;;;;;;;;-144.99;100.00;52439.94;5064374;28;19928;-69
2023/03/02 03:55:14;;;;;;;;;;;;;;;-144.99;100.00;52415.47;5073491;28;20374;-70
2023/03/02 03:57:41;;;;;;;;;;;;;;;-144.99;100.00;52452.16;5081726;28;19929;-69
2023/03/02 04:00:09;;;;;;;;;;;;;;;-144.99;100.00;52439.94;5078397;28;19929;-69
2023/03/02 04:02:36;;;;;;;;;;;;;;;-144.99;100.00;52439.94;5078146;28;19939;-70
2023/03/02 04:05:05;;;;;;;;;;;;;;;-144.99;100.00;52439.94;5073527;28;19924;-70
2023/03/02 04:07:33;;;;;;;;;;;;;;;-144.99;100.00;52419.56;5074407;28;20305;-72
2023/03/02 04:10:03;;;;;;;;;;;;;;;-144.99;100.00;52444.03;5071981;28;19950;-71
2023/03/02 04:12:29;;;;;;;;;;;;;;;-144.99;100.00;52460.31;5074172;28;20024;-70
2023/03/02 04:14:56;;;;;;;;;;;;;;;-144.99;100.00;52427.72;5066939;28;20344;-71
2023/03/02 04:17:23;;;;;;;;;;;;;;;-144.99;100.00;52454.22;5064094;28;19947;-72
2023/03/02 04:19:49;;;;;;;;;;;;;;;-144.99;100.00;52437.91;5073449;28;20340;-70
2023/03/02 04:22:18;;;;;;;;;;;;;;;-144.99;100.00;52444.03;5064231;28;19937;-70
2023/03/02 04:24:47;;;;;;;;;;;;;;;-144.99;100.00;52435.88;5058428;28;19928;-72
2023/03/02 04:27:14;;;;;;;;;;;;;;;-144.99;100.00;52456.25;5058486;28;19935;-70
2023/03/02 04:29:41;;;;;;;;;;;;;;;-144.99;100.00;52450.13;5068522;28;19928;-69
2023/03/02 04:32:07;;;;;;;;;;;;;;;-144.99;100.00;52464.41;5065607;28;19978;-72
2023/03/02 04:34:34;;;;;;;;;;;;;;;-144.99;100.00;52484.78;5056968;28;19929;-70
2023/03/02 04:37:00;;;;;;;;;;;;;;;-144.99;100.00;52444.03;5059894;28;19979;-66
2023/03/02 04:39:27;;;;;;;;;;;;;;;-144.99;100.00;52435.88;5055495;28;19924;-66
2023/03/02 04:41:55;;;;;;;;;;;;;;;-144.99;100.00;52435.88;5060340;28;19970;-66
2023/03/02 04:44:22;;;;;;;;;;;;;;;-144.99;100.00;52452.16;5064811;28;19924;-66
2023/03/02 04:46:49;;;;;;;;;;;;;;;-144.99;100.00;52478.66;5064515;28;19928;-65
2023/03/02 04:49:17;;;;;;;;;;;;;;;-144.99;100.00;52468.47;5058740;28;19931;-66
2023/03/02 04:51:45;;;;;;;;;;;;;;;-144.99;100.00;52444.03;5055541;28;19936;-65
2023/03/02 04:54:13;;;;;;;;;;;;;;;-144.99;100.00;52423.63;5061060;28;19972;-67
2023/03/02 04:56:40;;;;;;;;;;;;;;;-144.99;100.00;52431.78;5058565;28;19990;-73
2023/03/02 04:59:08;;;;;;;;;;;;;;;-144.99;100.00;52439.94;5057605;28;20002;-72
2023/03/02 05:01:34;;;;;;;;;;;;;;;-144.99;100.00;52462.34;5072070;28;19947;-73
2023/03/02 05:04:01;;;;;;;;;;;;;;;-144.99;100.00;52417.53;5073823;28;20023;-71
2023/03/02 05:06:27;;;;;;;;;;;;;;;-144.99;100.00;52456.25;5059054;28;19932;-72
2023/03/02 05:08:54;;;;;;;;;;;;;;;-144.99;100.00;52448.09;5067237;28;20344;-66
2023/03/02 05:11:24;;;;;;;;;;;;;;;-144.99;100.00;52464.41;5065975;28;19974;-67
2023/03/02 05:13:51;;;;;;;;;;;;;;;-144.99;100.00;52456.25;5064985;28;20344;-68
2023/03/02 05:16:19;;;;;;;;;;;;;;;-144.99;100.00;52433.81;5066262;28;20373;-68
2023/03/02 05:18:46;;;;;;;;;;;;;;;-144.99;100.00;52435.88;5059929;28;19928;-67
2023/03/02 05:21:13;;;;;;;;;;;;;;;-144.99;100.00;52460.31;5062773;28;20021;-67
2023/03/02 05:23:39;;;;;;;;;;;;;;;-144.99;100.00;52448.09;5060818;28;20355;-68
2023/03/02 05:26:06;;;;;;;;;;;;;;;-144.99;100.00;52450.13;5064870;28;19929;-66
2023/03/02 05:28:33;;;;;;;;;;;;;;;-144.99;100.00;52439.94;5058113;28;19929;-71
2023/03/02 05:30:59;;;;;;;;;;;;;;;-144.99;100.00;52448.09;5065545;28;20024;-71
2023/03/02 05:33:28;;;;;;;;;;;;;;;-144.99;100.00;52419.56;5056309;28;19925;-70
2023/03/02 05:35:54;;;;;;;;;;;;;;;-144.99;100.00;52435.88;5059990;22;19979;-69
2023/03/02 05:38:21;;;;;;;;;;;;;;;-144.99;100.00;52439.94;5027942;28;19972;-68
2023/03/02 05:40:48;;;;;;;;;;;;;;;-144.99;100.00;52462.34;5029116;28;19929;-67
2023/03/02 05:43:16;;;;;;;;;;;;;;;-144.99;100.00;52448.09;5020766;28;19925;-69
2023/03/02 05:45:42;;;;;;;;;;;;;;;-144.99;100.00;52448.09;5022035;28;20007;-68
2023/03/02 05:48:10;;;;;;;;;;;;;;;-144.99;100.00;52448.09;5024781;28;19929;-67
2023/03/02 05:50:38;;;;;;;;;;;;;;;-144.99;100.00;52403.25;5028181;28;19925;-67
2023/03/02 05:53:04;;;;;;;;;;;;;;;-144.99;100.00;52423.63;5020907;28;19964;-67
2023/03/02 05:55:35;;;;;;;;;;;;;;;-144.99;100.00;52458.28;5027069;28;19964;-68
2023/03/02 05:58:02;;;;;;;;;;;;;;;-144.99;100.00;52454.22;5025112;28;20358;-68
2023/03/02 06:00:28;;;;;;;;;;;;;;;-144.99;100.00;52427.72;5024060;28;19929;-71
2023/03/02 06:02:56;;;;;;;;;;;;;;;-144.99;100.00;52427.72;5029572;28;20451;-71
2023/03/02 06:05:23;;;;;;;;;;;;;;;-144.99;100.00;52444.03;5032377;28;19929;-70
2023/03/02 06:07:51;;;;;;;;;;;;;;;-144.99;100.00;52378.78;5027936;28;19941;-61
2023/03/02 06:10:18;;;;;;;;;;;;;;;-144.99;100.00;52423.63;5046341;28;20215;-74
2023/03/02 06:12:44;;;;;;;;;;;;;;;-144.99;100.00;52411.41;5035348;28;19929;-72
2023/03/02 06:15:11;;;;;;;;;;;;;;;-144.99;100.00;52454.22;5032971;28;20401;-72
2023/03/02 06:17:37;;;;;;;;;;;;;;;-144.99;100.00;52452.16;5027928;28;20026;-73
2023/03/02 06:20:09;;;;;;;;;;;;;;;-144.99;100.00;52419.56;5031935;28;20176;-72
2023/03/02 06:22:37;;;;;;;;;;;;;;;-144.99;100.00;52415.47;5032444;28;20331;-73
2023/03/02 06:25:05;;;;;;;;;;;;;;;-144.99;100.00;52435.88;5034484;28;19926;-72
2023/03/02 06:27:32;;;;;;;;;;;;;;;-144.99;100.00;52448.09;4333212;28;10000777;-72
2023/03/02 06:29:58;;;;;;;;;;;;;;;-144.99;100.00;52415.47;5030802;28;19936;-72
2023/03/02 06:32:25;;;;;;;;;;;;;;;-144.99;100.00;52468.47;5027916;28;19979;-71
2023/03/02 06:34:52;;;;;;;;;;;;;;;-144.99;100.00;52423.63;5029156;28;19937;-72
2023/03/02 06:37:18;;;;;;;;;;;;;;;-144.99;100.00;52472.56;5025022;28;20237;-71
2023/03/02 06:39:45;;;;;;;;;;;;;;;-144.99;100.00;52399.19;5033740;28;20000;-71
2023/03/02 06:42:13;;;;;;;;;;;;;;;-144.99;100.00;52427.72;5033564;28;19929;-72
2023/03/02 06:44:39;;;;;;;;;;;;;;;-144.99;100.00;52421.59;5029207;28;20377;-72
2023/03/02 06:47:06;;;;;;;;;;;;;;;-144.99;100.00;52458.28;5027373;28;19987;-70
2023/03/02 06:49:32;;;;;;;;;;;;;;;-144.99;100.00;52437.91;5022670;28;19979;-72
2023/03/02 06:51:59;;;;;;;;;;;;;;;-144.99;100.00;52423.63;5035311;28;19925;-71
2023/03/02 06:54:25;;;;;;;;;;;;;;;-144.99;100.00;52448.09;5030956;28;19933;-71
2023/03/02 06:56:52;;;;;;;;;;;;;;;-144.99;100.00;52464.41;5024256;28;19979;-72
2023/03/02 06:59:20;;;;;;;;;;;;;;;-144.99;100.00;52427.72;5022213;28;20060;-72
2023/03/02 07:01:48;;;;;;;;;;;;;;;-144.99;100.00;52448.09;5033201;28;19929;-72
2023/03/02 07:04:14;;;;;;;;;;;;;;;-144.99;100.00;52429.75;5025503;28;19929;-72
2023/03/02 07:06:41;;;;;;;;;;;;;;;-144.99;100.00;52476.63;5038459;28;20057;-72
2023/03/02 07:09:07;;;;;;;;;;;;;;;-144.99;100.00;52419.56;5032997;28;20355;-71
2023/03/02 07:11:34;;;;;;;;;;;;;;;-144.99;100.00;52439.94;5030174;28;19968;-71
2023/03/02 07:14:01;;;;;;;;;;;;;;;-144.99;100.00;52476.63;5029683;28;19929;-71
2023/03/02 07:16:30;;;;;;;;;;;;;;;-144.99;100.00;52448.09;5033548;28;19933;-71
2023/03/02 07:18:56;;;;;;;;;;;;;;;-144.99;100.00;52423.63;5027150;28;19999;-72
2023/03/02 07:21:23;;;;;;;;;;;;;;;-144.99;100.00;52435.88;5031579;28;19983;-71
2023/03/02 07:23:49;;;;;;;;;;;;;;;-144.99;100.00;52444.03;5020815;28;19929;-72
2023/03/02 07:26:16;;;;;;;;;;;;;;;-144.99;100.00;52435.88;5033321;28;19952;-73
2023/03/02 07:28:43;;;;;;;;;;;;;;;-144.99;100.00;52462.34;5025480;28;19995;-73
2023/03/02 07:31:10;;;;;;;;;;;;;;;-144.99;100.00;52435.88;5035905;28;19929;-73
2023/03/02 07:33:39;;;;;;;;;;;;;;;-144.99;100.00;52435.88;5049683;28;19944;-74
2023/03/02 07:36:06;;;;;;;;;;;;;;;-144.99;100.00;52456.25;5040190;28;19933;-74
2023/03/02 07:38:33;;;;;;;;;;;;;;;-144.99;100.00;52480.72;5029202;28;20012;-73
2023/03/02 07:41:00;;;;;;;;;;;;;;;-144.99;100.00;52476.63;5031842;28;20405;-73
2023/03/02 07:43:28;;;;;;;;;;;;;;;-144.99;100.00;52454.22;5037032;28;19929;-74
2023/03/02 07:45:54;;;;;;;;;;;;;;;-144.99;100.00;52476.63;5036323;28;19929;-74
2023/03/02 07:48:22;;;;;;;;;;;;;;;-144.99;100.00;52462.34;5033146;28;20083;-75
2023/03/02 07:50:50;;;;;;;;;;;;;;;-144.99;100.00;52409.38;5024288;28;19926;-73
2023/03/02 07:53:16;;;;;;;;;;;;;;;-144.99;100.00;52444.03;5026029;28;19999;-74
2023/03/02 07:55:43;;;;;;;;;;;;;;;-144.99;100.00;52452.16;5035026;28;19988;-74
2023/03/02 07:58:09;;;;;;;;;;;;;;;-144.99;100.00;52435.88;4678871;28;10000306;-74
2023/03/02 08:00:37;;;;;;;;;;;;;;;-144.99;100.00;52419.56;5037141;28;19925;-74
2023/03/02 08:03:04;;;;;;;;;;;;;;;-144.99;100.00;52456.25;5035432;28;20028;-73
2023/03/02 08:05:31;;;;;;;;;;;;;;;-144.99;100.00;52419.56;5026602;28;19925;-74
2023/03/02 08:07:58;;;;;;;;;;;;;;;-144.99;100.00;52427.72;5032646;28;20388;-73
2023/03/02 08:10:25;;;;;;;;;;;;;;;-144.99;100.00;52433.81;5031034;28;19929;-74
2023/03/02 08:12:52;;;;;;;;;;;;;;;-144.99;100.00;52427.72;5032782;28;20248;-73
2023/03/02 08:15:18;;;;;;;;;;;;;;;-144.99;100.00;52409.38;5048997;28;19913;-74
2023/03/02 08:17:45;;;;;;;;;;;;;;;-144.99;100.00;52456.25;5036657;28;20008;-73
2023/03/02 08:20:15;;;;;;;;;;;;;;;-144.99;100.00;52415.47;5032412;28;19937;-74
2023/03/02 08:22:42;;;;;;;;;;;;;;;-144.99;100.00;52407.31;5030084;28;19929;-73
2023/03/02 08:25:09;;;;;;;;;;;;;;;-144.99;100.00;52419.56;5033326;28;19991;-73
2023/03/02 08:27:37;;;;;;;;;;;;;;;-144.99;100.00;52452.16;5034139;28;20390;-73
2023/03/02 08:30:03;;;;;;;;;;;;;;;-144.99;100.00;52431.78;5021374;28;20298;-73
2023/03/02 08:32:30;;;;;;;;;;;;;;;-144.99;100.00;52407.31;5026196;28;20337;-74
2023/03/02 08:34:57;;;;;;;;;;;;;;;-144.99;100.00;52464.41;5024041;28;19956;-74
2023/03/02 08:37:23;;;;;;;;;;;;;;;-144.99;100.00;52468.47;5026117;28;20939;-73
2023/03/02 08:39:50;;;;;;;;;;;;;;;-144.99;100.00;52423.63;5026541;28;19952;-73
2023/03/02 08:42:18;;;;;;;;;;;;;;;-144.99;100.00;52439.94;5030006;28;19943;-73
2023/03/02 08:44:45;;;;;;;;;;;;;;;-144.99;100.00;52425.66;5028020;28;19925;-73
2023/03/02 08:47:11;;;;;;;;;;;;;;;-144.99;100.00;52452.16;5023297;28;20434;-73
2023/03/02 08:49:38;;;;;;;;;;;;;;;-144.99;100.00;52431.78;5032057;28;19967;-72
2023/03/02 08:52:05;;;;;;;;;;;;;;;-144.99;100.00;52415.47;5025513;28;19929;-73
2023/03/02 08:54:33;;;;;;;;;;;;;;;-144.99;100.00;52401.22;5038598;28;20139;-73
2023/03/02 08:56:59;;;;;;;;;;;;;;;-144.99;100.00;52419.56;5044044;28;20081;-73
2023/03/02 08:59:27;;;;;;;;;;;;;;;-144.99;100.00;52448.09;5031538;28;20244;-75
2023/03/02 09:01:54;;;;;;;;;;;;;;;-144.99;100.00;52444.03;5017542;28;20413;-74
2023/03/02 09:04:20;;;;;;;;;;;;;;;-144.99;100.00;52433.81;5017099;28;19930;-75
2023/03/02 09:06:47;;;;;;;;;;;;;;;-144.99;100.00;52439.94;5019967;28;20348;-75
2023/03/02 09:09:14;;;;;;;;;;;;;;;-144.99;100.00;52419.56;5041739;28;19933;-77
2023/03/02 09:11:42;;;;;;;;;;;;;;;-144.99;100.00;52427.72;5015903;28;20359;-78
2023/03/02 09:14:09;;;;;;;;;;;;;;;-144.99;100.00;52441.97;5023347;28;19925;-74
2023/03/02 09:16:37;;;;;;;;;;;;;;;-144.99;100.00;52421.59;5027728;28;20594;-73
2023/03/02 09:19:04;;;;;;;;;;;;;;;-144.99;100.00;52423.63;5030897;28;20389;-73
2023/03/02 09:21:30;;;;;;;;;;;;;;;-144.99;100.00;52448.09;5024045;28;19925;-74
2023/03/02 09:23:57;;;;;;;;;;;;;;;-144.99;100.00;52452.16;5027240;28;19930;-72
2023/03/02 09:26:24;;;;;;;;;;;;;;;-144.99;100.00;52427.72;5037785;28;19968;-74
2023/03/02 09:28:51;;;;;;;;;;;;;;;-144.99;100.00;52431.78;5035267;28;19956;-74
2023/03/02 09:31:18;;;;;;;;;;;;;;;-144.99;100.00;52415.47;5043104;28;19956;-74
2023/03/02 09:33:46;;;;;;;;;;;;;;;-144.99;100.00;52427.72;5043408;28;19929;-74
2023/03/02 09:36:18;;;;;;;;;;;;;;;-144.99;100.00;52395.09;5044844;28;19940;-74
2023/03/02 09:38:44;;;;;;;;;;;;;;;-144.99;100.00;52431.78;5045478;28;19956;-74
2023/03/02 09:41:28;;;;;;;;;;;;;;;-144.99;100.00;52399.19;5040364;28;20271;-73
2023/03/02 09:44:01;;;;;;;;;;;;;;;-144.99;100.00;52423.63;5043162;28;19960;-73
2023/03/02 09:46:32;;;;;;;;;;;;;;;-144.99;100.00;52407.31;5029097;28;19925;-73
2023/03/02 09:49:07;;;;;;;;;;;;;;;-144.99;100.00;52419.56;5039123;28;19952;-73
2023/03/02 09:51:38;;;;;;;;;;;;;;;-144.99;100.00;52439.94;5037214;28;19952;-73
2023/03/02 09:54:08;;;;;;;;;;;;;;;-144.99;100.00;52419.56;5029485;28;19929;-75
2023/03/02 09:56:37;;;;;;;;;;;;;;;-144.99;100.00;52427.72;5035381;28;19925;-74
2023/03/02 09:59:07;;;;;;;;;;;;;;;-144.99;100.00;52431.78;5036592;28;20461;-73
2023/03/02 10:01:37;;;;;;;;;;;;;;;-144.99;100.00;52411.41;5036291;28;20420;-73
2023/03/02 10:04:11;;;;;;;;;;;;;;;-144.99;100.00;52407.31;5039378;28;19948;-74
2023/03/02 10:06:37;;;;;;;;;;;;;;;-144.99;100.00;52419.56;5034613;28;19957;-75
2023/03/02 10:09:04;;;;;;;;;;;;;;;-144.99;100.00;52433.81;5019968;28;19933;-73
2023/03/02 10:11:35;;;;;;;;;;;;;;;-144.99;100.00;52415.47;5035120;28;20356;-75
2023/03/02 10:14:05;;;;;;;;;;;;;;;-144.99;100.00;52419.56;5031594;28;19929;-74
2023/03/02 10:16:34;;;;;;;;;;;;;;;-144.99;100.00;52427.72;5024587;28;20367;-74
2023/03/02 10:19:07;;;;;;;;;;;;;;;-144.99;100.00;52401.22;5034574;28;19929;-73
2023/03/02 10:21:38;;;;;;;;;;;;;;;-144.99;100.00;52403.25;5045957;28;19925;-74
2023/03/02 10:24:12;;;;;;;;;;;;;;;-144.99;100.00;52427.72;5030442;28;20503;-72
2023/03/02 10:26:40;;;;;;;;;;;;;;;-144.99;100.00;52399.19;5017072;28;20379;-74
2023/03/02 10:29:16;;;;;;;;;;;;;;;-144.99;100.00;52382.88;5024577;28;20148;-74
2023/03/02 10:31:44;;;;;;;;;;;;;;;-144.99;100.00;52419.56;5021211;28;19929;-73
2023/03/02 10:34:11;;;;;;;;;;;;;;;-144.99;100.00;52409.38;5027816;28;19929;-73
2023/03/02 10:36:40;;;;;;;;;;;;;;;-144.99;100.00;52425.66;5035906;28;20006;-73
2023/03/02 10:39:12;;;;;;;;;;;;;;;-144.99;100.00;52419.56;5025314;28;19932;-73
2023/03/02 10:41:41;;;;;;;;;;;;;;;-144.99;100.00;52395.09;5023469;28;20022;-73
2023/03/02 10:44:14;;;;;;;;;;;;;;;-144.99;100.00;52425.66;5023942;28;19949;-73
2023/03/02 10:46:41;;;;;;;;;;;;;;;-144.99;100.00;52423.63;5025761;28;19968;-74
2023/03/02 10:49:23;;;;;;;;;;;;;;;-144.99;100.00;52427.72;5027656;28;20405;-73
2023/03/02 10:51:56;;;;;;;;;;;;;;;-144.99;100.00;52439.94;5031102;28;20649;-73
2023/03/02 10:54:24;;;;;;;;;;;;;;;-144.99;100.00;52439.94;5027490;28;19929;-73
2023/03/02 10:56:53;;;;;;;;;;;;;;;-144.99;100.00;52431.78;5027286;28;19936;-74
2023/03/02 10:59:29;;;;;;;;;;;;;;;-144.99;100.00;52421.59;5049325;28;19913;-73
2023/03/02 11:02:00;;;;;;;;;;;;;;;-144.99;100.00;52407.31;5046092;28;19929;-73
2023/03/02 11:04:26;;;;;;;;;;;;;;;-144.99;100.00;52454.22;5031205;28;20337;-73
2023/03/02 11:06:53;;;;;;;;;;;;;;;-144.99;100.00;52429.75;5032239;28;19941;-73
2023/03/02 11:09:21;;;;;;;;;;;;;;;-144.99;100.00;52444.03;5025679;28;19936;-72
2023/03/02 11:11:53;;;;;;;;;;;;;;;-144.99;100.00;52464.41;5025352;28;19925;-73
2023/03/02 11:14:21;;;;;;;;;;;;;;;-144.99;100.00;52427.72;5030584;28;20366;-73
2023/03/02 11:16:48;;;;;;;;;;;;;;;-144.99;100.00;52444.03;5025779;28;20291;-74
2023/03/02 11:19:17;;;;;;;;;;;;;;;-144.99;99.12;52423.63;5030017;28;19973;-73
2023/03/02 11:21:46;;;;;;;;;;;;;;;-144.99;99.23;52435.88;5020583;28;19929;-73
2023/03/02 11:24:15;;;;;;;;;;;;;;;-144.99;99.20;52425.66;5030438;28;19929;-73
2023/03/02 11:26:46;;;;;;;;;;;;;;;-144.99;99.17;52423.63;5030957;28;19929;-73
2023/03/02 11:29:18;;;;;;;;;;;;;;;-144.99;99.33;52415.47;5029297;28;20023;-74
2023/03/02 11:31:48;;;;;;;;;;;;;;;-144.99;99.30;52431.78;5025646;28;19929;-73
2023/03/02 11:34:24;;;;;;;;;;;;;;;-144.99;98.86;52458.28;5030587;28;20293;-74
2023/03/02 11:36:58;;;;;;;;;;;;;;;-144.99;98.54;52391.03;5030231;28;19996;-73
2023/03/02 11:39:29;;;;;;;;;;;;;;;-144.99;98.26;52407.31;5043663;28;20072;-74
2023/03/02 11:41:57;;;;;;;;;;;;;;;-144.99;97.88;52411.41;5052226;28;19929;-74
2023/03/02 11:44:26;;;;;;;;;;;;;;;-144.99;97.65;52395.09;5026241;28;19936;-74
2023/03/02 11:46:57;;;;;;;;;;;;;;;-144.99;97.39;52415.47;5029614;28;20341;-74
2023/03/02 11:49:26;;;;;;;;;;;;;;;-144.99;96.99;52411.41;5025723;28;20461;-73
2023/03/02 11:51:56;;;;;;;;;;;;;;;-144.99;96.71;52411.41;5029885;28;19936;-73
2023/03/02 11:54:29;;;;;;;;;;;;;;;-144.99;96.82;52435.88;5026986;28;19936;-74
2023/03/02 11:56:58;;;;;;;;;;;;;;;-144.99;96.58;52407.31;5030277;28;19932;-73
2023/03/02 11:59:26;;;;;;;;;;;;;;;-144.99;96.18;52415.47;5026047;28;20086;-73
2023/03/02 12:01:55;;;;;;;;;;;;;;;-144.99;96.03;52439.94;5020306;28;19929;-74
2023/03/02 12:04:31;;;;;;;;;;;;;;;-144.99;95.63;52431.78;5022445;28;19937;-73
2023/03/02 12:06:57;;;;;;;;;;;;;;;-144.99;95.26;52448.09;5028659;28;20019;-74
2023/03/02 12:09:32;;;;;;;;;;;;;;;-144.99;95.08;52427.72;5019435;28;19976;-75
2023/03/02 12:12:11;;;;;;;;;;;;;;;-144.99;94.25;52407.31;5029910;28;19929;-73
2023/03/02 12:14:39;;;;;;;;;;;;;;;-144.99;94.46;52415.47;5026919;28;19929;-74
2023/03/02 12:17:23;;;;;;;;;;;;;;;-144.99;94.41;52393.06;5029182;28;19952;-74
2023/03/02 12:19:50;;;;;;;;;;;;;;;-144.99;94.15;52421.59;5032517;28;19917;-74
2023/03/02 12:22:26;;;;;;;;;;;;;;;-144.99;94.11;52439.94;5047696;28;19913;-74